Crystal Symphony — C6MY5 — position and weather

sailwx.info

Track history (hours):
 
Tides and Currents Weather Stations Pressure Air Temp Water Temp Dewpoint Dewpoint Depression Visibility Wind Speed Wind Dir Waves Ship Positions

Crystal Symphony

Operator: Crystal Cruises

Last reported at 2020-Mar-22 04:56 UTC. Time now 2020-Mar-29 16:09 UTC.
Position N 01°15' E 103°37'.

Length 238 m; draft 8 m.

Type: Ship. MMSI: 309168000.

Date/timePositionNaut miles runAvg speedWind from/ knotsBaromVisibWave heightAir tempDewpointWater temp
2020-Mar-22 04:56N 01°15' E 103°37'  
2020-Mar-17 06:30N 01°10' E 103°47'5 9.4
2020-Mar-17 06:00N 01°12' E 103°51'15 5.0
2020-Mar-17 03:00N 01°20' E 104°04'0 0.0
2020-Mar-16 22:57N 01°20' E 104°04'0 0.0
2020-Mar-16 21:22N 01°20' E 104°04'0 0.0
2020-Mar-16 19:27N 01°20' E 104°04'0 0.0
2020-Mar-16 17:26N 01°20' E 104°04'0 0.0
2020-Mar-16 14:49N 01°20' E 104°04'0 0.0
2020-Mar-16 14:28N 01°20' E 104°04'0 0.0
2020-Mar-16 06:33N 01°20' E 104°04'0 0.0
2020-Mar-16 03:26N 01°20' E 104°04'0 0.0
2020-Mar-15 22:06N 01°20' E 104°04'0 0.0
2020-Mar-15 19:47N 01°20' E 104°04'0 0.0
2020-Mar-15 13:50N 01°20' E 104°04'0 0.0
2020-Mar-15 10:31N 01°20' E 104°04'1 1.6
2020-Mar-15 10:00N 01°20' E 104°04'1010.1
2020-Mar-15 09:01N 01°14' E 103°55'7 0.2
2020-Mar-13 15:59N 01°16' E 103°49'0 0.0
2020-Mar-13 06:09N 01°16' E 103°49'0 0.0
2020-Mar-12 05:53N 01°16' E 103°49'  
Track history (hours):
 
Tides and Currents Weather Stations Pressure Air Temp Water Temp Dewpoint Dewpoint Depression Visibility Wind Speed Wind Dir Waves Ship Positions

Crystal Symphony

Operator: Crystal Cruises

Last reported at 2020-Mar-22 04:56 UTC. Time now 2020-Mar-29 16:09 UTC.
Position N 01°15' E 103°37'.

Length 238 m; draft 8 m.

Type: Ship. MMSI: 309168000.

Date/timePositionNaut miles runAvg speedWind from/ knotsBaromVisibWave heightAir tempDewpointWater temp
2020-Mar-22 04:56N 01°15' E 103°37'  
2020-Mar-17 06:30N 01°10' E 103°47'5 9.4
2020-Mar-17 06:00N 01°12' E 103°51'15 5.0
2020-Mar-17 03:00N 01°20' E 104°04'0 0.0
2020-Mar-16 22:57N 01°20' E 104°04'0 0.0
2020-Mar-16 21:22N 01°20' E 104°04'0 0.0
2020-Mar-16 19:27N 01°20' E 104°04'0 0.0
2020-Mar-16 17:26N 01°20' E 104°04'0 0.0
2020-Mar-16 14:49N 01°20' E 104°04'0 0.0
2020-Mar-16 14:28N 01°20' E 104°04'0 0.0
2020-Mar-16 06:33N 01°20' E 104°04'0 0.0
2020-Mar-16 03:26N 01°20' E 104°04'0 0.0
2020-Mar-15 22:06N 01°20' E 104°04'0 0.0
2020-Mar-15 19:47N 01°20' E 104°04'0 0.0
2020-Mar-15 13:50N 01°20' E 104°04'0 0.0
2020-Mar-15 10:31N 01°20' E 104°04'1 1.6
2020-Mar-15 10:00N 01°20' E 104°04'1010.1
2020-Mar-15 09:01N 01°14' E 103°55'7 0.2
2020-Mar-13 15:59N 01°16' E 103°49'0 0.0
2020-Mar-13 06:09N 01°16' E 103°49'0 0.0
2020-Mar-12 05:53N 01°16' E 103°49'  

Dump ship's entire track history